Time;durP1;ratioP1;P1;durP2;ratioP2;P2;SDS_P1;SDS_P2;PMS_P1;PMS_P2;Temp;Humidity;BMP_temperature;BMP_pressure;BME280_temperature;BME280_humidity;BME280_pressure;Samples;Min_cycle;Max_cycle;Signal;HPM_P1;HPM_P2
2024/01/05 00:00:01;;;;;;;0.80;0.50;;;;;;;-143.84;83.64;45197.59;5109159;28;20435;-61
2024/01/05 00:02:28;;;;;;;0.80;0.40;;;;;;;-143.84;84.24;45193.78;5108790;28;20451;-61
2024/01/05 00:04:56;;;;;;;0.80;0.40;;;;;;;-143.84;84.70;45209.03;5109622;28;20427;-61
2024/01/05 00:07:23;;;;;;;0.80;0.40;;;;;;;-143.84;85.21;45170.94;5109041;28;21143;-61
2024/01/05 00:09:50;;;;;;;0.90;0.80;;;;;;;-143.84;85.74;45189.97;5109335;28;20438;-61
2024/01/05 00:12:18;;;;;;;1.97;1.00;;;;;;;-143.84;85.96;45180.47;5109219;28;20435;-61
2024/01/05 00:14:45;;;;;;;0.93;0.83;;;;;;;-143.84;86.52;45172.84;5108932;28;20479;-61
2024/01/05 00:17:12;;;;;;;1.33;1.23;;;;;;;-143.84;86.57;45178.56;5109343;28;20431;-61
2024/01/05 00:19:39;;;;;;;0.80;0.50;;;;;;;-143.84;87.19;45176.66;5108908;28;20471;-61
2024/01/05 00:22:07;;;;;;;0.80;0.53;;;;;;;-143.84;87.56;45201.41;5109137;28;20512;-61
2024/01/05 00:24:37;;;;;;;0.80;0.50;;;;;;;-143.84;87.99;45205.22;5109059;28;20471;-61
2024/01/05 00:27:04;;;;;;;1.43;0.83;;;;;;;-143.84;88.10;45201.41;5108768;28;20439;-61
2024/01/05 00:29:32;;;;;;;0.80;0.53;;;;;;;-143.84;88.42;45214.72;5109065;28;20500;-61
2024/01/05 00:31:59;;;;;;;0.80;0.40;;;;;;;-143.84;88.32;45186.16;5108950;28;20439;-61
2024/01/05 00:34:26;;;;;;;0.80;0.50;;;;;;;-143.84;88.06;45201.41;5108866;28;20434;-61
2024/01/05 00:36:53;;;;;;;0.80;0.50;;;;;;;-143.84;87.78;45159.50;5108991;28;20867;-60
2024/01/05 00:39:21;;;;;;;0.90;0.67;;;;;;;-143.84;88.30;45207.13;5108744;28;20451;-61
2024/01/05 00:41:48;;;;;;;0.80;0.47;;;;;;;-143.84;87.73;45189.97;5108734;28;20507;-61
2024/01/05 00:44:16;;;;;;;0.90;0.70;;;;;;;-143.84;87.01;45186.16;5108990;28;20439;-60
2024/01/05 00:46:43;;;;;;;1.63;0.87;;;;;;;-143.84;86.68;45184.25;5108739;28;20469;-61
2024/01/05 00:49:10;;;;;;;0.80;0.47;;;;;;;-143.84;86.54;45176.66;5108998;28;20997;-61
2024/01/05 00:51:37;;;;;;;0.80;0.50;;;;;;;-143.84;86.55;45197.59;5108774;28;20431;-61
2024/01/05 00:54:04;;;;;;;0.80;0.40;;;;;;;-143.84;86.44;45216.63;5108805;28;20936;-61
2024/01/05 00:56:32;;;;;;;0.80;0.60;;;;;;;-143.84;85.91;45189.97;5108836;28;20471;-61
2024/01/05 00:58:59;;;;;;;0.80;0.50;;;;;;;-143.84;85.59;45199.50;5108984;28;20439;-61
2024/01/05 01:01:27;;;;;;;1.33;1.23;;;;;;;-143.84;84.77;45199.50;5108699;28;20430;-61
2024/01/05 01:03:54;;;;;;;0.80;0.40;;;;;;;-143.84;83.89;45174.75;5108596;28;20513;-61
2024/01/05 01:06:22;;;;;;;0.80;0.50;;;;;;;-143.84;83.09;45172.84;5108594;28;20956;-60
2024/01/05 01:08:50;;;;;;;2.60;0.80;;;;;;;-143.84;82.57;45193.78;5108524;28;20469;-61
2024/01/05 01:11:18;;;;;;;0.80;0.50;;;;;;;-143.84;82.18;45209.03;5108599;28;20518;-60
2024/01/05 01:13:46;;;;;;;0.97;0.70;;;;;;;-143.84;82.19;45191.88;5108548;28;20492;-61
2024/01/05 01:16:14;;;;;;;0.80;0.40;;;;;;;-143.84;81.42;45218.53;5108681;28;20470;-61
2024/01/05 01:18:41;;;;;;;0.80;0.40;;;;;;;-143.84;81.10;45186.16;5109047;28;21227;-61
2024/01/05 01:21:08;;;;;;;1.10;0.67;;;;;;;-143.84;80.69;45197.59;5108457;28;20470;-61
2024/01/05 01:23:35;;;;;;;0.80;0.40;;;;;;;-143.84;80.47;45195.69;5108612;28;20438;-61
2024/01/05 01:26:02;;;;;;;0.80;0.50;;;;;;;-143.84;80.56;45169.03;5108671;28;21008;-60
2024/01/05 01:28:29;;;;;;;0.80;0.50;;;;;;;-143.84;80.29;45207.13;5108691;28;20462;-60
2024/01/05 01:30:58;;;;;;;0.80;0.40;;;;;;;-143.84;80.59;45186.16;5108339;28;20438;-61
2024/01/05 01:33:25;;;;;;;0.80;0.40;;;;;;;-143.84;80.73;45197.59;5108235;28;20438;-61
2024/01/05 01:35:52;;;;;;;1.07;0.73;;;;;;;-143.84;80.84;45197.59;5108205;28;20474;-61
2024/01/05 01:38:19;;;;;;;0.80;0.40;;;;;;;-143.84;81.19;45188.06;5108267;28;20500;-61
2024/01/05 01:40:46;;;;;;;0.80;0.40;;;;;;;-143.84;81.21;45180.47;5108730;28;20932;-61
2024/01/05 01:43:19;;;;;;;0.80;0.47;;;;;;;-143.84;81.03;45176.66;5108141;28;20441;-61
2024/01/05 01:45:47;;;;;;;1.20;0.80;;;;;;;-143.84;81.19;45201.41;5108378;28;20462;-61
2024/01/05 01:48:16;;;;;;;0.80;0.50;;;;;;;-143.84;81.54;45195.69;5108393;28;20496;-61
2024/01/05 01:50:43;;;;;;;0.80;0.63;;;;;;;-143.84;82.24;45186.16;5109945;28;20476;-61
2024/01/05 01:53:12;;;;;;;2.97;0.90;;;;;;;-143.84;82.87;45201.41;5111893;28;20435;-61
2024/01/05 01:55:40;;;;;;;0.80;0.50;;;;;;;-143.84;82.92;45212.84;5111711;28;20474;-61
2024/01/05 01:58:07;;;;;;;0.80;0.40;;;;;;;-143.84;82.64;45178.56;5112071;28;20853;-61
2024/01/05 02:00:35;;;;;;;0.80;0.40;;;;;;;-143.84;82.04;45176.66;5112027;28;20442;-61
2024/01/05 02:03:04;;;;;;;0.80;0.40;;;;;;;-143.84;81.78;45184.25;5111877;28;20554;-61
2024/01/05 02:05:33;;;;;;;0.90;0.70;;;;;;;-143.84;81.86;45191.88;5111676;28;20439;-61
2024/01/05 02:08:00;;;;;;;1.00;0.60;;;;;;;-143.84;82.94;45170.94;5111489;28;20443;-61
2024/01/05 02:10:27;;;;;;;1.03;0.77;;;;;;;-143.84;83.21;45180.47;5111614;28;20434;-61
2024/01/05 02:12:56;;;;;;;0.80;0.40;;;;;;;-143.84;83.72;45189.97;5111512;28;20936;-60
2024/01/05 02:15:23;;;;;;;0.90;0.57;;;;;;;-143.84;84.11;45189.97;5111418;28;20583;-61
2024/01/05 02:17:50;;;;;;;0.80;0.40;;;;;;;-143.84;84.23;45195.69;5111689;28;20496;-60
2024/01/05 02:20:17;;;;;;;0.80;0.50;;;;;;;-143.84;84.00;45193.78;5111364;28;20991;-61
2024/01/05 02:22:52;;;;;;;0.80;0.40;;;;;;;-143.84;84.03;45186.16;5111544;28;20443;-60
2024/01/05 02:25:20;;;;;;;1.00;0.57;;;;;;;-143.84;83.90;45182.38;5111389;28;20449;-61
2024/01/05 02:27:47;;;;;;;4.60;0.70;;;;;;;-143.84;84.23;45176.66;5111177;28;20443;-61
2024/01/05 02:30:19;;;;;;;0.80;0.50;;;;;;;-143.84;84.46;45199.50;5111090;28;20948;-61
2024/01/05 02:32:45;;;;;;;1.67;0.60;;;;;;;-143.84;84.49;45195.69;5110956;28;20431;-61
2024/01/05 02:35:12;;;;;;;0.80;0.50;;;;;;;-143.84;84.75;45170.94;5111128;28;20442;-61
2024/01/05 02:37:43;;;;;;;0.80;0.50;;;;;;;-143.84;84.92;45188.06;5111218;28;20504;-61
2024/01/05 02:40:12;;;;;;;0.80;0.50;;;;;;;-143.84;85.16;45189.97;5110820;28;20443;-60
2024/01/05 02:42:41;;;;;;;0.80;0.40;;;;;;;-143.84;85.34;45197.59;5111026;28;21010;-61
2024/01/05 02:45:08;;;;;;;0.80;0.50;;;;;;;-143.84;85.06;45178.56;5111012;28;21123;-61
2024/01/05 02:47:35;;;;;;;0.80;0.53;;;;;;;-143.84;85.30;45163.31;5110817;28;20438;-61
2024/01/05 02:50:03;;;;;;;0.80;0.60;;;;;;;-143.84;85.47;45205.22;5110899;28;20476;-61
2024/01/05 02:52:30;;;;;;;0.80;0.40;;;;;;;-143.84;85.46;45191.88;5111093;28;20443;-61
2024/01/05 02:54:57;;;;;;;1.00;0.67;;;;;;;-143.84;85.21;45165.22;5110692;28;21016;-60
2024/01/05 02:57:25;;;;;;;0.80;0.50;;;;;;;-143.84;85.24;45172.84;5110459;28;20520;-61
2024/01/05 02:59:54;;;;;;;0.80;0.50;;;;;;;-143.84;84.92;45197.59;5110571;28;20525;-60
2024/01/05 03:02:21;;;;;;;0.80;0.60;;;;;;;-143.84;84.79;45197.59;5109893;28;20447;-60
2024/01/05 03:04:49;;;;;;;0.80;0.50;;;;;;;-143.84;85.04;45176.66;5110415;28;20473;-61
2024/01/05 03:07:16;;;;;;;0.80;0.57;;;;;;;-143.84;85.51;45172.84;5110343;28;20907;-60
2024/01/05 03:09:43;;;;;;;0.80;0.40;;;;;;;-143.84;85.32;45214.72;5110749;27;20480;-60
2024/01/05 03:12:10;;;;;;;0.80;0.40;;;;;;;-143.84;85.31;45174.75;5110282;28;20455;-61
2024/01/05 03:14:37;;;;;;;0.90;0.77;;;;;;;-143.84;85.18;45209.03;5110140;28;20439;-61
2024/01/05 03:17:06;;;;;;;0.80;0.50;;;;;;;-143.84;85.10;45197.59;5109828;28;20478;-60
2024/01/05 03:19:33;;;;;;;0.80;0.40;;;;;;;-143.84;84.53;45178.56;5110154;28;20520;-60
2024/01/05 03:22:01;;;;;;;0.80;0.40;;;;;;;-143.84;84.49;45209.03;5110211;28;20832;-61
2024/01/05 03:24:28;;;;;;;0.80;0.50;;;;;;;-143.84;84.46;45172.84;5110156;28;20435;-61
2024/01/05 03:26:55;;;;;;;0.80;0.47;;;;;;;-143.84;83.76;45205.22;5110288;28;20438;-61
2024/01/05 03:29:22;;;;;;;0.80;0.40;;;;;;;-143.84;83.74;45207.13;5110007;28;20463;-61
2024/01/05 03:31:49;;;;;;;1.00;0.53;;;;;;;-143.84;83.72;45188.06;5109804;28;20479;-60
2024/01/05 03:34:17;;;;;;;0.80;0.57;;;;;;;-143.84;84.18;45197.59;5109851;28;20484;-60
2024/01/05 03:36:44;;;;;;;3.70;1.00;;;;;;;-143.84;84.73;45189.97;5109683;28;20479;-61
2024/01/05 03:39:11;;;;;;;0.80;0.50;;;;;;;-143.84;85.47;45210.94;5109651;28;20451;-61
2024/01/05 03:41:39;;;;;;;1.20;0.87;;;;;;;-143.84;85.75;45169.03;5109641;28;20492;-61
2024/01/05 03:44:06;;;;;;;0.80;0.50;;;;;;;-143.84;85.92;45178.56;5109614;28;20439;-61
2024/01/05 03:46:33;;;;;;;0.80;0.50;;;;;;;-143.84;86.36;45193.78;5109644;28;20921;-60
2024/01/05 03:49:00;;;;;;;0.93;0.70;;;;;;;-143.84;86.33;45193.78;5109818;28;20853;-60
2024/01/05 03:51:28;;;;;;;0.80;0.50;;;;;;;-143.84;86.33;45226.16;5109615;28;20470;-61
2024/01/05 03:53:55;;;;;;;0.80;0.40;;;;;;;-143.84;86.51;45170.94;5109672;28;20442;-61
2024/01/05 03:56:22;;;;;;;0.80;0.40;;;;;;;-143.84;86.68;45207.13;5109361;28;20478;-60
2024/01/05 03:58:49;;;;;;;0.80;0.40;;;;;;;-143.84;86.79;45172.84;5109721;28;20443;-61
2024/01/05 04:01:17;;;;;;;0.97;0.87;;;;;;;-143.84;87.09;45199.50;5109551;28;21002;-61
2024/01/05 04:03:44;;;;;;;0.80;0.40;;;;;;;-143.84;87.21;45180.47;5109443;28;20492;-61
2024/01/05 04:06:19;;;;;;;0.80;0.40;;;;;;;-143.84;86.96;45188.06;5109260;28;20492;-61
2024/01/05 04:08:48;;;;;;;0.80;0.40;;;;;;;-143.84;87.34;45172.84;5109549;28;21532;-61
2024/01/05 04:11:20;;;;;;;0.80;0.50;;;;;;;-143.84;87.51;45193.78;5109397;28;20500;-61
2024/01/05 04:13:47;;;;;;;0.80;0.50;;;;;;;-143.84;87.60;45268.06;5108714;28;20443;-61
2024/01/05 04:16:14;;;;;;;1.00;0.90;;;;;;;-143.84;88.09;45197.59;5109431;28;20478;-61
2024/01/05 04:18:41;;;;;;;0.80;0.40;;;;;;;-143.84;88.42;45214.72;5109330;28;20453;-61
2024/01/05 04:21:09;;;;;;;0.90;0.67;;;;;;;-143.84;88.04;45169.03;5108692;28;20827;-60
2024/01/05 04:23:36;;;;;;;0.90;0.60;;;;;;;-143.84;88.10;45209.03;5092293;28;20448;-61
2024/01/05 04:26:05;;;;;;;0.80;0.50;;;;;;;-143.84;88.08;45163.31;5088429;28;20505;-61
2024/01/05 04:28:32;;;;;;;0.80;0.43;;;;;;;-143.84;88.21;45197.59;5087954;28;20489;-61
2024/01/05 04:30:59;;;;;;;0.90;0.57;;;;;;;-143.84;88.38;45191.88;5088086;28;20421;-61
2024/01/05 04:33:26;;;;;;;0.80;0.40;;;;;;;-143.84;88.53;45199.50;5088336;28;20933;-61
2024/01/05 04:35:53;;;;;;;0.80;0.50;;;;;;;-143.84;88.28;45191.88;5087635;28;20501;-61
2024/01/05 04:38:20;;;;;;;0.80;0.40;;;;;;;-143.84;88.06;45195.69;5087459;28;20509;-61
2024/01/05 04:40:47;;;;;;;0.90;0.60;;;;;;;-143.84;88.23;45197.59;5088642;28;20513;-61
2024/01/05 04:43:16;;;;;;;0.80;0.40;;;;;;;-143.84;88.84;45189.97;5088457;28;20440;-61
2024/01/05 04:45:43;;;;;;;1.57;0.60;;;;;;;-143.84;88.89;45203.31;5088833;28;20432;-60
2024/01/05 04:48:10;;;;;;;0.90;0.50;;;;;;;-143.84;88.28;45170.94;5088388;28;20440;-60
2024/01/05 04:50:37;;;;;;;0.80;0.50;;;;;;;-143.84;88.35;45199.50;5088773;28;20452;-61
2024/01/05 04:53:04;;;;;;;0.80;0.40;;;;;;;-143.84;88.42;45180.47;5088087;28;20425;-61
2024/01/05 04:55:31;;;;;;;0.80;0.60;;;;;;;-143.84;88.20;45178.56;5095857;28;20443;-60
2024/01/05 04:57:58;;;;;;;0.80;0.40;;;;;;;-143.84;88.04;45205.22;5108934;28;20869;-61
2024/01/05 05:00:27;;;;;;;0.80;0.50;;;;;;;-143.84;88.09;45212.84;5108792;28;20442;-61
2024/01/05 05:02:54;;;;;;;1.63;0.80;;;;;;;-143.84;87.97;45197.59;5108860;28;20492;-61
2024/01/05 05:05:22;;;;;;;0.80;0.50;;;;;;;-143.84;88.18;45207.13;5108974;28;20488;-61
2024/01/05 05:07:49;;;;;;;0.90;0.80;;;;;;;-143.84;87.71;45214.72;5108880;28;20446;-61
2024/01/05 05:10:16;;;;;;;0.90;0.70;;;;;;;-143.84;87.27;45203.31;5108997;28;21019;-60
2024/01/05 05:12:43;;;;;;;0.80;0.40;;;;;;;-143.84;87.50;45188.06;5108676;28;20439;-60
2024/01/05 05:15:11;;;;;;;1.10;0.80;;;;;;;-143.84;87.06;45199.50;5108870;28;20552;-61
2024/01/05 05:17:39;;;;;;;0.80;0.40;;;;;;;-143.84;87.08;45172.84;5108435;28;20489;-61
2024/01/05 05:20:07;;;;;;;0.80;0.40;;;;;;;-143.84;86.59;45193.78;5108585;28;20479;-60
2024/01/05 05:22:34;;;;;;;0.90;0.73;;;;;;;-143.84;86.53;45186.16;5108560;28;20488;-61
2024/01/05 05:25:02;;;;;;;0.80;0.60;;;;;;;-143.84;86.01;45174.75;5110931;28;20488;-61
2024/01/05 05:27:29;;;;;;;0.80;0.70;;;;;;;-143.84;85.74;45233.78;5112414;28;20454;-61
2024/01/05 05:29:57;;;;;;;0.90;0.50;;;;;;;-143.84;85.03;45184.25;5112485;28;20445;-61
2024/01/05 05:32:24;;;;;;;1.67;0.70;;;;;;;-143.84;85.14;45197.59;5112528;28;20466;-61
2024/01/05 05:34:53;;;;;;;0.80;0.50;;;;;;;-143.84;85.05;45176.66;5112540;28;20442;-61
2024/01/05 05:37:20;;;;;;;0.80;0.40;;;;;;;-143.84;84.71;45165.22;5112485;28;20483;-60
2024/01/05 05:39:47;;;;;;;0.80;0.50;;;;;;;-143.84;84.87;45167.13;5112633;28;21023;-61
2024/01/05 05:42:14;;;;;;;0.90;0.70;;;;;;;-143.84;84.97;45197.59;5112293;28;20435;-61
2024/01/05 05:44:41;;;;;;;0.80;0.40;;;;;;;-143.84;85.07;45184.25;5112302;28;20798;-60
2024/01/05 05:47:08;;;;;;;0.80;0.40;;;;;;;-143.84;85.17;45186.16;5112384;28;20442;-60
2024/01/05 05:49:36;;;;;;;0.80;0.53;;;;;;;-143.84;84.94;45216.63;5112092;28;21026;-61
2024/01/05 05:52:06;;;;;;;0.90;0.60;;;;;;;-143.84;85.03;45172.84;5112242;28;20450;-60
2024/01/05 05:54:33;;;;;;;0.80;0.50;;;;;;;-143.84;85.27;45201.41;5111768;28;20438;-61
2024/01/05 05:57:00;;;;;;;0.80;0.40;;;;;;;-143.84;85.54;45170.94;5112131;28;20517;-61
2024/01/05 05:59:27;;;;;;;0.87;0.67;;;;;;;-143.84;84.92;45188.06;5111804;28;20882;-60
2024/01/05 06:01:55;;;;;;;1.00;0.80;;;;;;;-143.84;84.25;45209.03;5111944;28;20485;-61
2024/01/05 06:04:22;;;;;;;1.50;1.10;;;;;;;-143.84;84.32;45176.66;5111871;28;20435;-61
2024/01/05 06:06:49;;;;;;;0.80;0.47;;;;;;;-143.84;84.43;45188.06;5111552;28;20503;-60
2024/01/05 06:09:18;;;;;;;0.80;0.50;;;;;;;-143.84;83.57;45178.56;5111568;28;20496;-61
2024/01/05 06:11:45;;;;;;;0.80;0.50;;;;;;;-143.84;83.89;45186.16;5111527;28;21001;-61
2024/01/05 06:14:12;;;;;;;0.80;0.40;;;;;;;-143.84;83.68;45178.56;5111637;28;21285;-61
2024/01/05 06:16:39;;;;;;;0.80;0.57;;;;;;;-143.84;83.73;45205.22;5111738;28;20487;-60
2024/01/05 06:19:06;;;;;;;0.80;0.40;;;;;;;-143.84;83.52;45193.78;5111497;28;20480;-60
2024/01/05 06:21:33;;;;;;;0.80;0.40;;;;;;;-143.84;83.70;45203.31;5111251;28;20530;-60
2024/01/05 06:24:00;;;;;;;0.80;0.40;;;;;;;-143.84;83.60;45195.69;5111231;28;20431;-61
2024/01/05 06:26:30;;;;;;;0.80;0.50;;;;;;;-143.84;83.55;45163.31;5111175;28;20526;-61
2024/01/05 06:28:58;;;;;;;1.00;0.70;;;;;;;-143.84;82.84;45180.47;5111215;28;20443;-60
2024/01/05 06:31:25;;;;;;;0.80;0.47;;;;;;;-143.84;82.32;45197.59;5111286;28;20471;-61
2024/01/05 06:33:52;;;;;;;1.33;0.73;;;;;;;-143.84;81.98;45209.03;5111075;28;20438;-61
2024/01/05 06:36:19;;;;;;;0.80;0.50;;;;;;;-143.84;82.14;45191.88;5110248;28;20503;-61
2024/01/05 06:38:46;;;;;;;0.80;0.40;;;;;;;-143.84;81.93;45195.69;5110840;28;20439;-61
2024/01/05 06:41:13;;;;;;;1.57;1.47;;;;;;;-143.84;81.49;45197.59;5111324;28;20435;-61
2024/01/05 06:43:42;;;;;;;0.90;0.73;;;;;;;-143.84;81.30;45189.97;5110908;28;20445;-61
2024/01/05 06:46:09;;;;;;;2.50;0.73;;;;;;;-143.84;80.46;45159.50;5111092;28;20502;-61
2024/01/05 06:48:36;;;;;;;0.80;0.50;;;;;;;-143.84;79.86;45170.94;5110731;28;20431;-60
2024/01/05 06:51:03;;;;;;;0.80;0.50;;;;;;;-143.84;78.82;45191.88;5110938;28;20495;-61
2024/01/05 06:53:30;;;;;;;2.23;1.13;;;;;;;-143.84;75.81;45182.38;5110559;28;20488;-60
2024/01/05 06:55:57;;;;;;;4.00;1.60;;;;;;;-143.84;75.67;45163.31;5110821;28;20500;-61
2024/01/05 06:58:25;;;;;;;1.53;1.10;;;;;;;-143.84;74.67;45189.97;5110696;28;20544;-61
2024/01/05 07:00:53;;;;;;;0.80;0.60;;;;;;;-143.84;75.61;45203.31;5110603;28;20877;-61
2024/01/05 07:03:21;;;;;;;0.80;0.60;;;;;;;-143.84;75.58;45176.66;5110663;28;20455;-61
2024/01/05 07:05:48;;;;;;;0.90;0.53;;;;;;;-143.84;74.41;45170.94;5110609;28;20855;-61
2024/01/05 07:08:15;;;;;;;0.80;0.60;;;;;;;-143.84;73.92;45186.16;5110288;28;20447;-61
2024/01/05 07:10:42;;;;;;;0.80;0.50;;;;;;;-143.84;72.54;45159.50;5110586;28;20499;-61
2024/01/05 07:13:09;;;;;;;0.90;0.63;;;;;;;-143.84;72.36;45144.28;5110232;28;20435;-61
2024/01/05 07:15:37;;;;;;;0.80;0.40;;;;;;;-143.84;71.37;45186.16;5110338;28;20471;-61
2024/01/05 07:18:05;;;;;;;0.80;0.50;;;;;;;-143.84;70.95;45188.06;5110323;28;20539;-61
2024/01/05 07:20:33;;;;;;;1.10;0.90;;;;;;;-143.84;70.12;45157.59;5110236;28;20892;-61
2024/01/05 07:23:01;;;;;;;0.90;0.60;;;;;;;-143.84;69.43;45165.22;5110055;28;21018;-60
2024/01/05 07:25:28;;;;;;;2.90;0.90;;;;;;;-143.84;68.52;45178.56;5110468;28;20439;-61
2024/01/05 07:27:55;;;;;;;0.93;0.83;;;;;;;-143.84;67.51;45195.69;5110151;28;20443;-61
2024/01/05 07:30:23;;;;;;;0.80;0.50;;;;;;;-143.84;66.64;45159.50;5110649;28;20438;-61
2024/01/05 07:32:50;;;;;;;0.80;0.40;;;;;;;-143.84;65.64;45174.75;5110093;28;20435;-61
2024/01/05 07:35:18;;;;;;;0.80;0.50;;;;;;;-143.84;64.83;45169.03;5110288;28;20527;-60
2024/01/05 07:37:46;;;;;;;1.77;1.00;;;;;;;-143.84;64.77;45151.91;5109949;28;20528;-61
2024/01/05 07:40:13;;;;;;;1.70;0.90;;;;;;;-143.84;63.11;45228.06;5109681;28;20451;-61
2024/01/05 07:42:41;;;;;;;1.10;0.53;;;;;;;-143.84;62.91;45129.03;5109646;28;20439;-61
2024/01/05 07:45:09;;;;;;;0.97;0.60;;;;;;;-143.84;62.60;45167.13;5109799;28;20533;-61
2024/01/05 07:47:37;;;;;;;1.43;0.53;;;;;;;-143.84;61.25;45174.75;5108618;28;20466;-61
2024/01/05 07:50:05;;;;;;;0.90;0.70;;;;;;;-143.84;61.46;45167.13;5109668;28;20504;-61
2024/01/05 07:52:33;;;;;;;0.90;0.63;;;;;;;-143.84;61.01;45150.00;5109592;28;20500;-61
2024/01/05 07:55:00;;;;;;;1.03;0.93;;;;;;;-143.84;60.15;45159.50;5109575;28;20508;-61
2024/01/05 07:57:27;;;;;;;1.00;0.83;;;;;;;-143.84;58.23;45146.19;5109553;28;20486;-61
2024/01/05 07:59:55;;;;;;;0.90;0.70;;;;;;;-143.84;57.50;45146.19;5109334;28;20757;-61
2024/01/05 08:02:22;;;;;;;0.97;0.80;;;;;;;-143.84;56.06;45130.94;5109293;28;20850;-61
2024/01/05 08:04:49;;;;;;;1.27;0.70;;;;;;;-143.84;56.08;45142.38;5109258;28;20443;-61
2024/01/05 08:07:17;;;;;;;0.80;0.50;;;;;;;-143.84;55.12;45146.19;5109543;28;20530;-61
2024/01/05 08:09:52;;;;;;;0.80;0.40;;;;;;;-143.84;53.98;45140.47;5109412;28;20788;-61
2024/01/05 08:12:19;;;;;;;0.80;0.40;;;;;;;-143.84;53.39;45142.38;5109277;28;20442;-61
2024/01/05 08:14:47;;;;;;;0.80;0.50;;;;;;;-143.84;53.08;45148.09;5109135;28;20439;-61
2024/01/05 08:17:14;;;;;;;1.90;1.80;;;;;;;-143.84;53.91;45186.16;5108976;28;20474;-61
2024/01/05 08:19:41;;;;;;;0.80;0.40;;;;;;;-143.84;53.44;45151.91;5109038;28;20831;-61
2024/01/05 08:22:08;;;;;;;0.80;0.47;;;;;;;-143.84;53.67;45132.84;5109473;28;20488;-61
2024/01/05 08:24:35;;;;;;;1.10;1.00;;;;;;;-143.84;52.59;45117.63;5109019;28;20496;-61
2024/01/05 08:27:04;;;;;;;0.80;0.47;;;;;;;-143.84;51.07;45150.00;5109112;28;20959;-61
2024/01/05 08:29:31;;;;;;;1.00;0.50;;;;;;;-143.84;50.72;45134.75;5109164;28;20446;-61
2024/01/05 08:32:02;;;;;;;1.13;0.87;;;;;;;-143.84;50.40;45125.22;5109404;28;20443;-61
2024/01/05 08:34:30;;;;;;;0.80;0.40;;;;;;;-143.84;49.74;45130.94;5108899;28;20454;-61
2024/01/05 08:36:57;;;;;;;0.80;0.50;;;;;;;-143.84;49.42;45144.28;5109300;28;20856;-61
2024/01/05 08:39:24;;;;;;;0.80;0.50;;;;;;;-143.84;49.22;45153.81;5108943;28;20462;-61
2024/01/05 08:41:51;;;;;;;0.80;0.50;;;;;;;-143.84;48.94;45132.84;5109071;28;20435;-61
2024/01/05 08:44:21;;;;;;;1.40;0.90;;;;;;;-143.84;48.63;45125.22;5108907;28;20434;-61
2024/01/05 08:46:48;;;;;;;0.80;0.43;;;;;;;-143.84;48.29;45140.47;5108931;28;20451;-61
2024/01/05 08:49:16;;;;;;;0.90;0.60;;;;;;;-143.84;47.76;45129.03;5108799;28;20439;-61
2024/01/05 08:51:43;;;;;;;2.50;0.77;;;;;;;-143.84;47.94;45123.34;5108943;28;20438;-61
2024/01/05 08:54:11;;;;;;;0.90;0.50;;;;;;;-143.84;46.86;45123.34;5108842;28;20464;-61
2024/01/05 08:56:38;;;;;;;1.00;0.50;;;;;;;-143.84;46.92;45121.44;5108970;28;20447;-61
2024/01/05 08:59:05;;;;;;;1.30;0.97;;;;;;;-143.84;46.72;45123.34;5109815;28;20482;-61
2024/01/05 09:01:34;;;;;;;1.53;0.60;;;;;;;-143.84;46.05;45130.94;5112295;28;20441;-61
2024/01/05 09:04:01;;;;;;;0.83;0.57;;;;;;;-143.84;46.04;45121.44;5111871;28;20446;-61
2024/01/05 09:06:31;;;;;;;3.60;1.20;;;;;;;-143.84;46.33;45108.09;5112043;28;20492;-61
2024/01/05 09:08:58;;;;;;;0.80;0.40;;;;;;;-143.84;45.21;45132.84;5112203;28;20518;-61
2024/01/05 09:11:25;;;;;;;1.67;0.77;;;;;;;-143.84;45.07;45136.66;5112140;28;20439;-62
2024/01/05 09:13:53;;;;;;;0.80;0.63;;;;;;;-143.84;44.98;45136.66;5112085;28;20920;-61
2024/01/05 09:16:20;;;;;;;0.90;0.50;;;;;;;-143.84;45.13;45123.34;5112691;28;20447;-61
2024/01/05 09:18:49;;;;;;;1.10;0.93;;;;;;;-143.84;45.24;45110.00;5112384;28;20478;-62
2024/01/05 09:21:16;;;;;;;0.80;0.40;;;;;;;-143.84;45.74;45127.13;5112257;28;20536;-61
2024/01/05 09:23:43;;;;;;;1.23;1.10;;;;;;;-143.84;45.37;45138.56;5112601;28;20457;-61
2024/01/05 09:26:14;;;;;;;0.90;0.50;;;;;;;-143.84;44.70;45121.44;5112677;28;20830;-61
2024/01/05 09:28:42;;;;;;;0.97;0.53;;;;;;;-143.84;44.14;45132.84;5112705;28;20435;-61
2024/01/05 09:31:09;;;;;;;1.17;0.67;;;;;;;-143.84;43.87;45085.25;5112339;28;20443;-62
2024/01/05 09:33:37;;;;;;;1.30;0.67;;;;;;;-143.84;41.72;45110.00;5112341;28;20453;-61
2024/01/05 09:36:06;;;;;;;1.30;0.73;;;;;;;-143.84;42.66;45106.19;5112363;28;20443;-62
2024/01/05 09:38:33;;;;;;;0.83;0.57;;;;;;;-143.84;42.57;45096.66;5112098;28;20538;-61
2024/01/05 09:41:00;;;;;;;1.17;0.70;;;;;;;-143.84;41.97;45094.78;5112313;28;20466;-61
2024/01/05 09:43:27;;;;;;;0.80;0.50;;;;;;;-143.84;42.20;45090.97;5111973;28;20438;-61
2024/01/05 09:45:57;;;;;;;0.80;0.50;;;;;;;-143.84;41.81;45108.09;5112008;28;20443;-61
2024/01/05 09:48:25;;;;;;;0.90;0.60;;;;;;;-143.84;42.08;45106.19;5112055;28;20454;-62
2024/01/05 09:50:53;;;;;;;1.53;1.10;;;;;;;-143.84;42.19;45119.53;5112033;28;20449;-62
2024/01/05 09:53:21;;;;;;;0.80;0.60;;;;;;;-143.84;41.94;45089.06;5112243;28;20883;-62
2024/01/05 09:55:49;;;;;;;1.00;0.90;;;;;;;-143.84;42.11;45098.56;5111697;28;20443;-61
2024/01/05 09:58:16;;;;;;;1.27;0.60;;;;;;;-143.84;42.19;45113.81;5111815;28;20513;-61
2024/01/05 10:00:46;;;;;;;0.83;0.63;;;;;;;-143.84;41.89;45096.66;5111826;28;20438;-60
2024/01/05 10:03:21;;;;;;;0.80;0.50;;;;;;;-143.84;41.56;45094.78;5111544;28;20499;-61
2024/01/05 10:05:48;;;;;;;0.87;0.63;;;;;;;-143.84;41.76;45108.09;5112118;28;20537;-61
2024/01/05 10:08:16;;;;;;;3.73;1.37;;;;;;;-143.84;41.41;45100.47;5111673;28;20439;-61
2024/01/05 10:10:48;;;;;;;0.80;0.50;;;;;;;-143.84;41.59;45098.56;5110658;28;20447;-61
2024/01/05 10:13:16;;;;;;;0.90;0.60;;;;;;;-143.84;42.55;45096.66;5111665;28;20447;-61
2024/01/05 10:15:55;;;;;;;0.87;0.50;;;;;;;-143.84;41.95;45098.56;5111677;28;20423;-61
2024/01/05 10:18:24;;;;;;;0.80;0.40;;;;;;;-143.84;41.41;45087.16;5111636;28;21411;-61
2024/01/05 10:20:51;;;;;;;0.80;0.40;;;;;;;-143.84;41.65;45089.06;5111528;28;21080;-61
2024/01/05 10:23:18;;;;;;;0.90;0.60;;;;;;;-143.84;41.74;45071.91;5111323;28;20511;-61
2024/01/05 10:25:47;;;;;;;0.90;0.60;;;;;;;-143.84;41.14;45102.38;5111057;28;20418;-61
2024/01/05 10:28:25;;;;;;;1.07;0.77;;;;;;;-143.84;41.60;45102.38;5111329;28;20620;-61
2024/01/05 10:30:53;;;;;;;0.90;0.60;;;;;;;-143.84;41.27;45111.91;5111304;28;20435;-61
2024/01/05 10:33:20;;;;;;;0.80;0.50;;;;;;;-143.84;40.97;45108.09;5111153;28;20529;-61
2024/01/05 10:35:47;;;;;;;0.80;0.40;;;;;;;-143.84;41.44;45108.09;5111129;28;20866;-61
2024/01/05 10:38:15;;;;;;;0.90;0.50;;;;;;;-143.84;41.14;45119.53;5110697;28;20550;-61
2024/01/05 10:40:42;;;;;;;2.33;1.77;;;;;;;-143.84;41.01;45102.38;5111535;28;20492;-61
2024/01/05 10:43:16;;;;;;;1.47;1.03;;;;;;;-143.84;41.45;45106.19;5110892;28;20439;-61
2024/01/05 10:45:44;;;;;;;1.00;0.80;;;;;;;-143.84;41.23;45100.47;5110814;28;20814;-61
2024/01/05 10:48:13;;;;;;;0.80;0.50;;;;;;;-143.84;40.60;45087.16;5110925;28;20447;-61
2024/01/05 10:50:43;;;;;;;1.63;0.77;;;;;;;-143.84;40.64;45098.56;5110763;28;20439;-61
2024/01/05 10:53:10;;;;;;;1.00;0.53;;;;;;;-143.84;41.20;45094.78;5111035;28;20459;-61
2024/01/05 10:55:38;;;;;;;0.90;0.60;;;;;;;-143.84;41.07;45090.97;5110750;28;20431;-61
2024/01/05 10:58:07;;;;;;;0.80;0.57;;;;;;;-143.84;41.00;45100.47;5110661;28;20557;-61
2024/01/05 11:00:37;;;;;;;1.40;1.20;;;;;;;-143.84;40.32;45100.47;5110450;28;21043;-61
2024/01/05 11:03:11;;;;;;;12.40;0.60;;;;;;;-143.84;40.55;45089.06;5110463;28;20440;-61
2024/01/05 11:05:42;;;;;;;0.90;0.70;;;;;;;-143.84;40.36;45077.63;5110982;28;20484;-61
2024/01/05 11:08:19;;;;;;;0.80;0.50;;;;;;;-143.84;39.66;45085.25;5110398;28;20480;-61
2024/01/05 11:10:55;;;;;;;1.00;0.80;;;;;;;-143.84;40.10;45094.78;5110380;28;20442;-61
2024/01/05 11:13:38;;;;;;;0.80;0.40;;;;;;;-143.84;40.31;45085.25;5110318;28;20447;-61
2024/01/05 11:16:25;;;;;;;0.80;0.43;;;;;;;-143.84;40.25;45087.16;5110137;28;20431;-61
2024/01/05 11:19:13;;;;;;;0.80;0.50;;;;;;;-143.84;40.43;45113.81;5110309;28;20485;-61